首页
METAR-TAF:

METAR-TAF

机场 :

真纳国际机场

卡拉奇, 巴基斯坦

纬度: 24-54N, 经度: 067-08E, 海拔: 21米

当前天气观测

该预报发布于32分钟前的10:25 UTC
风速13节,风向西南
温度 31°C
湿度 55%
气压 1008 hPa
能見度: 6000
少量云层高于2000英尺

METAR: OPKC 241025Z 23013KT 6000 FEW020 31/21 Q1008 NOSIG

时间: 15:57 (10:57 UTC)

预报

该预报发布于4小时和27分钟前的06:30 UTC
预报有效从24日的 09点(UTC)到 24日的 18点(UTC)
风速12节,风向西转西南,有时为22节阵风
能見度: 6000
散云层高于3000英尺

TAF: OPKC 240630Z 2409/2418 24012G22KT 6000 SCT030

超过4000个机场的气象观测和天气预报(METAR&TAF报告)。

可查询的气象台以黄色和红色小点在地图上表示。

将鼠标移到小点上方,可查看气象台名称。

然后点击查看天气观测和预报。

如需切换地图:点击带黑十字的绿色按钮放大地图;点击带横线的绿色按钮缩小地图;或者点击绿色箭头查看邻近地区的地图。


METAR-TAF: